Terminal Aerodrome Forecast
Issued by NWS

Home | Current Version | Previous Version | Graphics & Text | Print | Product List | Glossary On
Versions: 1 2 3 4 5 6 7 8 9 10 11 12 13 14 15 16 17 18 19
000
FTUS43 KIWX 231139
TAFSBN
TAF
KSBN 231139Z 2312/2412 35010KT 4SM BR OVC003
     FM231700 34010KT 6SM BR OVC005
     FM232200 33008KT 6SM BR OVC008
     FM240500 31005KT 4SM BR OVC004=

USA.gov is the U.S. government's official web portal to all federal, state and local government web resources and services.